Hlavní strana
METAR-TAF:

METAR-TAF

Letiště :

Irkutsk, Rusko

zeměpisná šířka: 52-16N, zeměpisná délka: 104-19E, výška: 513 m

Aktuální stav počasí

Zpráva byla vytvořena před 23 minutami, v 23:00 UTC
Východní vítr 2 kt
Teplota -3°C
Vlhkost vzduchu 100%
Tlak 1026 hPa
Viditelnost 10 km a více
Žádná oblačnost pod 1500 m, nevyskytují se cumulonimby.

METAR: UIII 152300Z 08001MPS CAVOK M03/M03 Q1026 R12/60D NOSIG RMK QFE727/0969

Čas: 07:23 (23:23 UTC)

Předpověď počasí

Zpráva byla vytvořena před 3 hodinami a 23 minutami, v 20:00 UTC
Předpověď platná od 15 v 21 UTC do 16 v 21 UTC
Východoseverovýchodní vítr 6 kt
Viditelnost 10 km a více
Dočasný
od 15 v 21 UTC do 16 v 03 UTC
Viditelnost: 0300 m
ve výšce 200 ft
mrznoucí mlha
Změna
od 16 v 04 UTC do 16 v 06 UTC
Jihojihovýchodní vítr 10 kt

TAF: UIII 152000Z 1521/1621 06003MPS 9999 NSC TEMPO 1521/1603 0300 FZFG VV002 BECMG 1604/1606 16005MPS

Stav a předpovědi počasí z více než 4 000 letišť (zprávy METAR a TAF).

Červené a žluté tečky na mapě představují dostupné meteorologické stanice.

Když kurzor umístíte na tečku, zobrazí se název stanice.

Pak kliknutím zobrazíte stav a předpověď počasí.

Chcete-li změnit mapu, kliknutím na zelené tlačítko se znaménkem +mapu přiblížíte, kliknutím na zelené tlačítko se znaménkem – mapu oddálíte a kliknutím na zelené šipky přejdete na sousední mapy.


METAR-TAF: